This is the latest recevied weather packets stored in our database for station/object KD7KCN-5. If no packets are shown the sender has not sent any weather packets the latest 10 day(s).
| Time | Temp. | Humidity | Pressure | Rain* | Wind** | Luminosity | Snow |
|---|---|---|---|---|---|---|---|
| 1777999308 | 11.11° C | 49% | 1009.8 hPa | 0 mm | - | 796 W/m² | - |
| 1777998708 | 10.56° C | 51% | 1009.8 hPa | 0 mm | - | 105 W/m² | - |
| 1777998108 | 11.11° C | 49% | 1009.7 hPa | 0 mm | - | 213 W/m² | - |
| 1777997508 | 10.56° C | 52% | 1009.7 hPa | 0 mm | - | 715 W/m² | - |
| 1777996908 | 10° C | 51% | 1009.7 hPa | 0 mm | - | 93 W/m² | - |
| 1777996308 | 10.56° C | 50% | 1009.6 hPa | 0 mm | - | 666 W/m² | - |
| 1777995708 | 10° C | 53% | 1010.5 hPa | 0 mm | - | 113 W/m² | - |
| 1777995108 | 10.56° C | 51% | 1010.3 hPa | 0 mm | - | 469 W/m² | - |
| 1777994508 | 10.56° C | 53% | 1010.3 hPa | 0 mm | - | 533 W/m² | - |
| 1777993308 | 10° C | 54% | 1010.2 hPa | 0 mm | - | 464 W/m² | - |
| 1777992708 | 10° C | 55% | 1010.2 hPa | 0 mm | - | 434 W/m² | - |
| 1777992108 | 9.44° C | 55% | 1010.2 hPa | 0 mm | - | 401 W/m² | - |
| 1777991508 | 9.44° C | 55% | 1010.1 hPa | 0 mm | - | 366 W/m² | - |
| 1777990908 | 9.44° C | 54% | 1010.2 hPa | 0 mm | - | 334 W/m² | - |
| 1777989708 | 8.89° C | 55% | 1010.1 hPa | 0 mm | - | 264 W/m² | - |
| 1777989108 | 8.33° C | 56% | 1010 hPa | 0 mm | - | 225 W/m² | - |
| 1777988508 | 7.78° C | 56% | 1009.8 hPa | 0 mm | - | 193 W/m² | - |
| 1777987908 | 7.22° C | 57% | 1010 hPa | 0 mm | - | 149 W/m² | - |
| 1777987308 | 7.22° C | 56% | 1009.8 hPa | 0 mm | - | 107 W/m² | - |
| 1777986708 | 7.22° C | 56% | 1009.7 hPa | 0 mm | - | 74 W/m² | - |
| 1777986108 | 7.22° C | 57% | 1009.5 hPa | 0 mm | - | 42 W/m² | - |
| 1777985508 | 6.67° C | 58% | 1009.4 hPa | 0 mm | - | 19 W/m² | - |
| 1777984909 | 6.11° C | 59% | 1009.2 hPa | 0 mm | - | 5 W/m² | - |
| 1777984308 | 6.11° C | 58% | 1009.2 hPa | 0 mm | - | 0 W/m² | - |
| 1777983708 | 6.67° C | 57% | 1009.2 hPa | 0 mm | - | 0 W/m² | - |
* Rain latest hour (hover to see other rain measurements)
** Current wind speed in m/s (hover to see current wind gust speed)